Time;durP1;ratioP1;P1;durP2;ratioP2;P2;SDS_P1;SDS_P2;PMS_P1;PMS_P2;Temp;Humidity;BMP_temperature;BMP_pressure;BME280_temperature;BME280_humidity;BME280_pressure;Samples;Min_cycle;Max_cycle;Signal;HPM_P1;HPM_P2
2021/06/05 00:01:44;;;;;;;;;;;;;;;18.57;100.00;100793.44;5025060;28;20376;-69
2021/06/05 00:04:28;;;;;;;;;;;;;;;18.57;100.00;100798.84;5054004;28;19920;-70
2021/06/05 00:07:12;;;;;;;;;;;;;;;18.53;100.00;100797.50;5038303;28;19959;-70
2021/06/05 00:09:56;;;;;;;;;;;;;;;18.50;100.00;100797.88;5053605;28;19923;-70
2021/06/05 00:12:40;;;;;;;;;;;;;;;18.55;100.00;100795.47;5038642;28;19963;-70
2021/06/05 00:15:26;;;;;;;;;;;;;;;18.52;100.00;100806.63;5053236;28;20290;-70
2021/06/05 00:18:11;;;;;;;;;;;;;;;18.54;100.00;100804.56;5053589;28;20471;-69
2021/06/05 00:20:55;;;;;;;;;;;;;;;18.51;100.00;100804.94;5038522;28;19927;-70
2021/06/05 00:23:40;;;;;;;;;;;;;;;18.47;100.00;100803.66;5038573;28;19938;-70
2021/06/05 00:26:24;;;;;;;;;;;;;;;18.48;100.00;100802.63;5024112;28;19920;-69
2021/06/05 00:29:08;;;;;;;;;;;;;;;18.40;100.00;100808.09;5038351;28;19927;-70
2021/06/05 00:31:52;;;;;;;;;;;;;;;18.38;100.00;100806.59;5038677;28;19924;-70
2021/06/05 00:34:36;;;;;;;;;;;;;;;18.34;100.00;100810.69;5053604;28;19924;-70
2021/06/05 00:37:20;;;;;;;;;;;;;;;18.32;100.00;100808.16;5023995;28;19935;-70
2021/06/05 00:40:05;;;;;;;;;;;;;;;18.33;100.00;100812.53;5038342;28;19926;-70
2021/06/05 00:42:48;;;;;;;;;;;;;;;18.27;100.00;100815.06;5038283;28;20284;-71
2021/06/05 00:45:34;;;;;;;;;;;;;;;18.23;100.00;100811.06;5024229;28;19919;-70
2021/06/05 00:48:18;;;;;;;;;;;;;;;18.25;100.00;100809.88;5053238;28;19981;-71
2021/06/05 00:51:02;;;;;;;;;;;;;;;18.23;100.00;100813.75;5024240;28;20026;-70
2021/06/05 00:53:46;;;;;;;;;;;;;;;18.20;100.00;100812.25;5038206;28;20403;-71
2021/06/05 00:56:30;;;;;;;;;;;;;;;18.17;100.00;100800.97;5037981;28;19919;-71
2021/06/05 00:59:14;;;;;;;;;;;;;;;18.17;100.00;100800.97;5024209;28;19920;-70
2021/06/05 01:01:58;;;;;;;;;;;;;;;18.19;100.00;100805.19;5038102;28;19918;-71
2021/06/05 01:04:42;;;;;;;;;;;;;;;18.16;100.00;100804.69;5038130;28;19963;-70
2021/06/05 01:07:26;;;;;;;;;;;;;;;18.12;100.00;100796.13;5037998;28;19924;-70
2021/06/05 01:10:13;;;;;;;;;;;;;;;18.12;100.00;100796.13;5038984;28;20460;-70
2021/06/05 01:12:59;;;;;;;;;;;;;;;18.10;100.00;100797.34;5056548;28;19966;-70
2021/06/05 01:15:46;;;;;;;;;;;;;;;18.08;100.00;100794.81;5041539;28;20336;-70
2021/06/05 01:18:37;;;;;;;;;;;;;;;18.03;100.00;100793.69;5041594;28;19920;-70
2021/06/05 01:21:24;;;;;;;;;;;;;;;18.01;100.00;100795.72;5041543;28;20004;-70
2021/06/05 01:24:17;;;;;;;;;;;;;;;17.96;100.00;100788.16;5041360;28;19962;-70
2021/06/05 01:27:03;;;;;;;;;;;;;;;17.96;100.00;100790.84;5056118;28;20333;-70
2021/06/05 01:29:49;;;;;;;;;;;;;;;17.94;100.00;100790.19;5027085;28;19923;-71
2021/06/05 01:32:33;;;;;;;;;;;;;;;17.95;100.00;100791.88;5041033;28;19920;-70
2021/06/05 01:35:17;;;;;;;;;;;;;;;17.96;100.00;100787.31;5041163;28;19958;-70
2021/06/05 01:38:05;;;;;;;;;;;;;;;17.94;100.00;100795.59;5040923;28;19920;-70
2021/06/05 01:40:49;;;;;;;;;;;;;;;17.96;100.00;100788.16;5041963;28;19935;-70
2021/06/05 01:43:33;;;;;;;;;;;;;;;18.00;100.00;100788.66;5040867;28;19935;-70
2021/06/05 01:46:18;;;;;;;;;;;;;;;17.97;100.00;100788.97;5040940;28;19919;-70
2021/06/05 01:49:02;;;;;;;;;;;;;;;17.98;100.00;100790.66;5040665;28;19970;-70
2021/06/05 01:51:47;;;;;;;;;;;;;;;17.98;100.00;100791.50;5026990;28;20435;-70
2021/06/05 01:54:37;;;;;;;;;;;;;;;17.90;100.00;100791.56;5040867;28;20440;-66
2021/06/05 01:57:22;;;;;;;;;;;;;;;17.91;100.00;100790.53;5040880;28;20388;-70
2021/06/05 02:00:12;;;;;;;;;;;;;;;17.95;100.00;100791.88;5040746;28;19954;-70
2021/06/05 02:02:55;;;;;;;;;;;;;;;17.94;100.00;100794.75;5040783;28;20396;-70
2021/06/05 02:05:40;;;;;;;;;;;;;;;17.88;100.00;100784.66;5055665;28;19919;-70
2021/06/05 02:08:24;;;;;;;;;;;;;;;17.86;100.00;100790.25;5040544;28;19923;-70
2021/06/05 02:11:10;;;;;;;;;;;;;;;17.86;100.00;100792.09;5040399;28;20360;-70
2021/06/05 02:14:04;;;;;;;;;;;;;;;17.86;100.00;100779.47;5040528;28;20344;-70
2021/06/05 02:16:49;;;;;;;;;;;;;;;17.83;100.00;100770.88;5040128;28;20435;-70
2021/06/05 02:19:34;;;;;;;;;;;;;;;17.81;100.00;100768.34;5040415;28;19919;-70
2021/06/05 02:22:20;;;;;;;;;;;;;;;17.79;100.00;100769.56;5039821;28;19962;-70
2021/06/05 02:25:05;;;;;;;;;;;;;;;17.70;100.00;100766.06;5040331;28;19920;-70
2021/06/05 02:27:50;;;;;;;;;;;;;;;17.73;100.00;100771.09;5026641;28;19958;-67
2021/06/05 02:30:34;;;;;;;;;;;;;;;17.73;100.00;100762.19;5040245;28;20380;-70
2021/06/05 02:33:18;;;;;;;;;;;;;;;17.75;100.00;100769.06;5026166;28;19920;-71
2021/06/05 02:36:02;;;;;;;;;;;;;;;17.73;100.00;100770.28;5040331;28;19966;-70
2021/06/05 02:38:49;;;;;;;;;;;;;;;17.76;100.00;100769.91;5040049;28;19920;-70
2021/06/05 02:41:33;;;;;;;;;;;;;;;17.70;100.00;100766.06;5040136;28;20464;-70
2021/06/05 02:44:18;;;;;;;;;;;;;;;17.64;100.00;100764.09;5040008;28;19920;-70
2021/06/05 02:47:05;;;;;;;;;;;;;;;17.61;100.00;100755.50;5039861;28;20419;-70
2021/06/05 02:49:49;;;;;;;;;;;;;;;17.56;100.00;100763.28;5039784;28;19967;-70
2021/06/05 02:52:33;;;;;;;;;;;;;;;17.50;100.00;100764.81;5039794;28;20408;-70
2021/06/05 02:55:19;;;;;;;;;;;;;;;17.48;100.00;100761.47;5054779;28;19919;-70
2021/06/05 02:58:05;;;;;;;;;;;;;;;17.45;100.00;100761.84;5025709;28;19919;-69
2021/06/05 03:00:49;;;;;;;;;;;;;;;17.42;100.00;100756.78;5039656;28;19919;-70
2021/06/05 03:03:33;;;;;;;;;;;;;;;17.37;100.00;100759.19;5039605;28;19962;-70
2021/06/05 03:06:18;;;;;;;;;;;;;;;17.32;100.00;100756.13;5039305;28;19920;-71
2021/06/05 03:09:03;;;;;;;;;;;;;;;17.26;100.00;100754.13;5054671;28;19969;-70
2021/06/05 03:11:47;;;;;;;;;;;;;;;17.24;100.00;100748.09;5025551;28;19919;-70
2021/06/05 03:14:31;;;;;;;;;;;;;;;17.20;100.00;100757.53;5025043;28;19935;-69
2021/06/05 03:17:15;;;;;;;;;;;;;;;17.19;100.00;100755.84;5054131;28;19982;-70
2021/06/05 03:19:58;;;;;;;;;;;;;;;17.20;100.00;100751.31;5054365;28;20023;-71
2021/06/05 03:22:43;;;;;;;;;;;;;;;17.16;100.00;100753.50;5054039;28;19918;-71
2021/06/05 03:25:26;;;;;;;;;;;;;;;17.16;100.00;100750.81;5038903;28;19923;-71
2021/06/05 03:28:10;;;;;;;;;;;;;;;17.19;100.00;100749.63;5147503;22;19927;-72
2021/06/05 03:30:54;;;;;;;;;;;;;;;17.20;100.00;100756.69;5059760;28;19962;-70
2021/06/05 03:33:38;;;;;;;;;;;;;;;17.18;100.00;100747.97;5044145;28;19920;-71
2021/06/05 03:36:23;;;;;;;;;;;;;;;17.13;100.00;100753.88;5058802;28;20281;-71
2021/06/05 03:39:07;;;;;;;;;;;;;;;17.19;100.00;100755.03;5045000;28;19962;-70
2021/06/05 03:41:51;;;;;;;;;;;;;;;17.16;100.00;100750.81;5045089;28;19962;-70
2021/06/05 03:44:35;;;;;;;;;;;;;;;17.13;100.00;100745.78;5044788;28;19923;-71
2021/06/05 03:47:22;;;;;;;;;;;;;;;17.10;100.00;100742.59;5058454;28;20292;-71
2021/06/05 03:50:07;;;;;;;;;;;;;;;17.10;100.00;100746.09;5059174;28;19928;-71
2021/06/05 03:52:51;;;;;;;;;;;;;;;17.08;100.00;100741.94;5074379;28;20277;-71
2021/06/05 03:55:34;;;;;;;;;;;;;;;17.07;100.00;100748.31;5074004;28;20293;-70
2021/06/05 03:58:25;;;;;;;;;;;;;;;17.07;100.00;100751.84;5058310;28;19935;-71
2021/06/05 04:01:14;;;;;;;;;;;;;;;17.08;100.00;100748.16;5058414;28;19958;-71
2021/06/05 04:03:58;;;;;;;;;;;;;;;17.10;100.00;100761.44;5045067;28;19919;-71
2021/06/05 04:06:42;;;;;;;;;;;;;;;17.12;100.00;100759.41;5044508;28;19919;-71
2021/06/05 04:09:26;;;;;;;;;;;;;;;17.13;100.00;100761.94;5041460;28;20374;-71
2021/06/05 04:12:10;;;;;;;;;;;;;;;17.14;100.00;100760.94;5044593;28;19919;-71
2021/06/05 04:14:54;;;;;;;;;;;;;;;17.16;100.00;100761.59;5058442;28;20030;-70
2021/06/05 04:17:38;;;;;;;;;;;;;;;17.18;100.00;100762.25;5058395;28;20449;-71
2021/06/05 04:20:22;;;;;;;;;;;;;;;17.18;100.00;100762.25;5058562;28;20022;-70
2021/06/05 04:23:06;;;;;;;;;;;;;;;17.24;100.00;100758.00;5058287;28;19923;-70
2021/06/05 04:25:51;;;;;;;;;;;;;;;17.24;100.00;100752.63;5059071;28;20265;-70
2021/06/05 04:28:34;;;;;;;;;;;;;;;17.18;100.00;100759.56;5044077;28;19939;-70
2021/06/05 04:31:18;;;;;;;;;;;;;;;17.22;100.00;100760.91;5058423;28;19920;-70
2021/06/05 04:34:02;;;;;;;;;;;;;;;17.30;100.00;100762.72;5058449;28;19943;-70
2021/06/05 04:36:48;;;;;;;;;;;;;;;17.40;100.00;100758.81;5058427;28;19919;-69
2021/06/05 04:39:32;;;;;;;;;;;;;;;17.54;100.00;100758.09;5044172;28;19962;-70
2021/06/05 04:42:16;;;;;;;;;;;;;;;17.62;100.00;100758.00;5058073;28;19923;-70
2021/06/05 04:45:00;;;;;;;;;;;;;;;17.75;100.00;100757.44;5059298;28;20283;-70
2021/06/05 04:47:44;;;;;;;;;;;;;;;17.83;100.00;100765.47;5062082;28;19919;-70
2021/06/05 04:50:29;;;;;;;;;;;;;;;17.93;100.00;100771.47;5048302;28;20038;-70
2021/06/05 04:53:12;;;;;;;;;;;;;;;18.00;100.00;100778.69;5047669;28;19920;-70
2021/06/05 04:55:56;;;;;;;;;;;;;;;18.10;100.00;100779.28;5048006;28;19961;-70
2021/06/05 04:58:40;;;;;;;;;;;;;;;18.19;100.00;100780.91;5047927;28;20004;-70
2021/06/05 05:01:24;;;;;;;;;;;;;;;18.18;100.00;100775.66;5061611;28;19962;-70
2021/06/05 05:04:08;;;;;;;;;;;;;;;18.30;100.00;100785.91;5061640;28;19961;-70
2021/06/05 05:06:52;;;;;;;;;;;;;;;18.21;100.00;100792.34;5061513;28;20012;-69
2021/06/05 05:09:35;;;;;;;;;;;;;;;18.13;100.00;100789.69;5047538;28;20289;-71
2021/06/05 05:12:19;;;;;;;;;;;;;;;18.09;100.00;100790.25;5047447;28;19927;-70
2021/06/05 05:15:04;;;;;;;;;;;;;;;18.11;100.00;100797.13;5061578;28;19962;-70
2021/06/05 05:17:48;;;;;;;;;;;;;;;18.14;100.00;100799.47;5076357;28;19961;-71
2021/06/05 05:20:33;;;;;;;;;;;;;;;18.19;100.00;100799.78;5061707;28;20273;-70
2021/06/05 05:23:18;;;;;;;;;;;;;;;18.19;100.00;100805.19;5061296;28;19958;-70
2021/06/05 05:26:03;;;;;;;;;;;;;;;18.21;100.00;100807.72;5061094;28;20316;-70
2021/06/05 05:28:49;;;;;;;;;;;;;;;18.22;100.00;100817.50;5060979;28;20057;-70
2021/06/05 05:31:33;;;;;;;;;;;;;;;18.21;100.00;100813.94;5076458;28;20490;-69
2021/06/05 05:34:17;;;;;;;;;;;;;;;18.24;100.00;100818.97;5061612;28;20018;-71
2021/06/05 05:37:01;;;;;;;;;;;;;;;18.27;100.00;100818.63;5060955;28;19926;-70
2021/06/05 05:39:45;;;;;;;;;;;;;;;18.19;100.00;100821.38;5076346;28;20087;-70
2021/06/05 05:42:29;;;;;;;;;;;;;;;18.22;100.00;100815.63;5047270;28;19958;-70
2021/06/05 05:45:13;;;;;;;;;;;;;;;18.38;100.00;100820.94;5046876;28;19919;-70
2021/06/05 05:47:57;;;;;;;;;;;;;;;18.45;100.00;100816.50;5060762;28;20379;-69
2021/06/05 05:50:42;;;;;;;;;;;;;;;18.52;100.00;100822.84;5060905;28;19927;-70
2021/06/05 05:53:26;;;;;;;;;;;;;;;18.60;100.00;100828.16;5060553;28;19965;-70
2021/06/05 05:56:11;;;;;;;;;;;;;;;18.59;100.00;100831.91;5059848;28;20355;-70
2021/06/05 05:58:55;;;;;;;;;;;;;;;18.64;100.00;100832.16;5046465;28;19923;-70
2021/06/05 06:01:39;;;;;;;;;;;;;;;18.72;100.00;100829.41;5060818;28;19942;-71
2021/06/05 06:04:23;;;;;;;;;;;;;;;18.74;100.00;100833.59;5046799;28;19919;-70
2021/06/05 06:07:07;;;;;;;;;;;;;;;18.78;100.00;100826.00;5060213;28;19919;-70
2021/06/05 06:09:52;;;;;;;;;;;;;;;18.84;100.00;100826.09;5060157;28;19923;-70
2021/06/05 06:12:36;;;;;;;;;;;;;;;19.06;100.00;100835.13;5060551;28;19920;-69
2021/06/05 06:15:22;;;;;;;;;;;;;;;19.27;100.00;100833.41;5060503;28;20110;-70
2021/06/05 06:18:07;;;;;;;;;;;;;;;19.20;100.00;100834.34;5046015;28;19918;-71
2021/06/05 06:20:52;;;;;;;;;;;;;;;19.36;100.00;100837.72;5060340;28;19958;-68
2021/06/05 06:23:37;;;;;;;;;;;;;;;19.50;100.00;100826.03;5046472;28;19966;-70
2021/06/05 06:26:23;;;;;;;;;;;;;;;19.58;100.00;100831.34;5045855;28;19919;-71
2021/06/05 06:29:13;;;;;;;;;;;;;;;19.51;100.00;100833.13;5074385;28;20391;-69
2021/06/05 06:31:56;;;;;;;;;;;;;;;19.67;100.00;100827.53;5046126;28;19919;-70
2021/06/05 06:34:40;;;;;;;;;;;;;;;19.75;100.00;100829.28;5045385;28;19986;-71
2021/06/05 06:37:24;;;;;;;;;;;;;;;19.94;100.00;100832.22;5059521;28;19920;-70
2021/06/05 06:40:09;;;;;;;;;;;;;;;20.11;100.00;100830.97;5059488;28;19919;-70
2021/06/05 06:42:53;;;;;;;;;;;;;;;20.16;100.00;100835.81;5059173;28;19961;-69
2021/06/05 06:45:40;;;;;;;;;;;;;;;20.18;100.00;100836.47;5060530;28;19918;-70
2021/06/05 06:48:24;;;;;;;;;;;;;;;20.47;100.00;100841.75;5059816;28;19920;-70
2021/06/05 06:51:08;;;;;;;;;;;;;;;20.49;99.53;100850.53;5074475;28;19920;-70
2021/06/05 06:53:52;;;;;;;;;;;;;;;20.37;100.00;100849.38;5059127;28;20034;-70
2021/06/05 06:56:36;;;;;;;;;;;;;;;20.45;100.00;100849.25;5074070;28;19961;-70
2021/06/05 06:59:20;;;;;;;;;;;;;;;20.54;98.88;100848.09;5059068;28;19919;-69
2021/06/05 07:02:04;;;;;;;;;;;;;;;20.75;100.00;100846.22;5074033;28;19919;-70
2021/06/05 07:04:50;;;;;;;;;;;;;;;20.88;98.04;100851.75;5044834;28;19923;-70
2021/06/05 07:07:34;;;;;;;;;;;;;;;21.02;95.85;100841.88;5058866;28;19919;-70
2021/06/05 07:10:21;;;;;;;;;;;;;;;20.84;95.96;100849.59;5058696;28;19922;-70
2021/06/05 07:13:05;;;;;;;;;;;;;;;20.69;97.40;100848.84;5058682;28;20392;-70
2021/06/05 07:15:49;;;;;;;;;;;;;;;20.73;97.84;100847.44;5044369;28;19981;-70
2021/06/05 07:18:34;;;;;;;;;;;;;;;20.84;97.84;100846.91;5044509;28;20308;-70
2021/06/05 07:21:18;;;;;;;;;;;;;;;21.05;95.22;100858.53;5058771;28;20012;-70
2021/06/05 07:24:03;;;;;;;;;;;;;;;21.18;94.97;100851.34;5044529;28;19920;-71
2021/06/05 07:26:47;;;;;;;;;;;;;;;21.35;92.92;100858.16;5058349;28;19935;-69
2021/06/05 07:29:31;;;;;;;;;;;;;;;21.44;92.42;100866.94;5058258;28;20387;-70
2021/06/05 07:32:15;;;;;;;;;;;;;;;21.33;92.64;100868.38;5073729;28;20008;-70
2021/06/05 07:34:58;;;;;;;;;;;;;;;21.27;91.88;100863.72;5073252;28;19919;-69
2021/06/05 07:37:42;;;;;;;;;;;;;;;21.19;91.32;100872.00;5043971;28;19967;-70
2021/06/05 07:40:26;;;;;;;;;;;;;;;21.24;90.61;100871.41;5043953;28;19919;-69
2021/06/05 07:43:11;;;;;;;;;;;;;;;21.29;92.42;100874.38;5073703;28;20391;-70
2021/06/05 07:45:55;;;;;;;;;;;;;;;21.45;91.81;100868.63;5044090;28;19919;-70
2021/06/05 07:48:39;;;;;;;;;;;;;;;21.35;90.84;100863.56;5057891;28;20253;-71
2021/06/05 07:51:22;;;;;;;;;;;;;;;21.28;89.89;100867.28;5073384;28;19918;-69
2021/06/05 07:54:06;;;;;;;;;;;;;;;21.31;91.80;100881.28;5044201;28;19962;-70
2021/06/05 07:56:50;;;;;;;;;;;;;;;21.10;92.99;100875.06;5043866;28;20068;-70
2021/06/05 07:59:34;;;;;;;;;;;;;;;21.25;93.11;100860.38;5057943;28;19927;-70
2021/06/05 08:02:18;;;;;;;;;;;;;;;21.24;92.01;100872.25;5043603;28;19919;-71
2021/06/05 08:05:02;;;;;;;;;;;;;;;21.14;92.13;100872.81;5057810;28;19918;-70
2021/06/05 08:07:46;;;;;;;;;;;;;;;21.17;92.71;100866.97;5057437;28;20002;-71
2021/06/05 08:10:30;;;;;;;;;;;;;;;20.95;94.22;100873.50;5072868;28;19928;-70
2021/06/05 08:13:14;;;;;;;;;;;;;;;20.99;92.93;100872.06;5043289;28;19935;-70
2021/06/05 08:15:58;;;;;;;;;;;;;;;21.04;94.87;100875.03;5043634;28;20376;-70
2021/06/05 08:18:42;;;;;;;;;;;;;;;21.27;91.91;100876.47;5057516;28;20045;-70
2021/06/05 08:21:26;;;;;;;;;;;;;;;21.39;92.66;100872.97;5047108;28;19966;-69
2021/06/05 08:24:10;;;;;;;;;;;;;;;21.54;89.56;100875.56;5061487;28;19927;-71
2021/06/05 08:26:54;;;;;;;;;;;;;;;21.69;90.05;100879.88;5047546;28;19939;-70
2021/06/05 08:29:38;;;;;;;;;;;;;;;21.82;89.44;100869.09;5047538;28;19966;-70
2021/06/05 08:32:22;;;;;;;;;;;;;;;21.80;85.93;100876.56;5061654;28;20415;-71
2021/06/05 08:35:06;;;;;;;;;;;;;;;21.72;85.79;100876.78;5061511;28;19923;-71
2021/06/05 08:37:50;;;;;;;;;;;;;;;21.87;85.14;100866.59;5061461;28;19920;-69
2021/06/05 08:40:45;;;;;;;;;;;;;;;22.06;83.73;100876.69;5061436;28;19935;-71
2021/06/05 08:43:30;;;;;;;;;;;;;;;21.85;82.06;100871.41;5061318;28;19961;-70
2021/06/05 08:46:15;;;;;;;;;;;;;;;22.05;82.25;100869.59;5061184;28;20409;-70
2021/06/05 08:48:59;;;;;;;;;;;;;;;22.25;81.63;100859.63;5061202;28;19927;-70
2021/06/05 08:51:56;;;;;;;;;;;;;;;22.28;79.98;100864.66;5061112;28;19919;-69
2021/06/05 08:54:58;;;;;;;;;;;;;;;22.45;79.30;100865.13;5061161;28;19919;-69
2021/06/05 08:58:02;;;;;;;;;;;;;;;23.11;77.17;100859.50;5076443;28;19923;-70
2021/06/05 09:00:46;;;;;;;;;;;;;;;23.51;75.24;100868.47;5061019;28;19922;-71
2021/06/05 09:03:31;;;;;;;;;;;;;;;23.33;71.45;100866.41;5061075;28;19920;-70
2021/06/05 09:06:22;;;;;;;;;;;;;;;23.15;72.34;100877.13;5075906;28;20289;-70
2021/06/05 09:09:07;;;;;;;;;;;;;;;23.02;74.22;100868.09;5060932;28;20013;-68
2021/06/05 09:11:51;;;;;;;;;;;;;;;23.45;70.46;100864.69;5076152;28;20383;-71
2021/06/05 09:14:35;;;;;;;;;;;;;;;22.97;72.98;100863.28;5060902;28;19970;-70
2021/06/05 09:17:20;;;;;;;;;;;;;;;22.92;73.44;100865.78;5060592;28;19955;-70
2021/06/05 09:20:07;;;;;;;;;;;;;;;23.07;71.97;100865.56;5060629;28;20288;-70
2021/06/05 09:22:51;;;;;;;;;;;;;;;23.06;72.13;100869.34;5076073;28;19918;-71
2021/06/05 09:25:38;;;;;;;;;;;;;;;23.20;70.77;100863.72;5061341;28;19939;-70
2021/06/05 09:28:22;;;;;;;;;;;;;;;23.36;71.37;100857.00;5074232;23;19928;-69
2021/06/05 09:31:15;;;;;;;;;;;;;;;23.48;71.89;100866.16;5054206;28;19998;-67
2021/06/05 09:33:59;;;;;;;;;;;;;;;23.58;70.51;100866.56;5056036;28;20380;-70
2021/06/05 09:36:43;;;;;;;;;;;;;;;23.16;73.66;100870.66;5054276;28;19966;-70
2021/06/05 09:39:38;;;;;;;;;;;;;;;23.15;73.60;100860.81;5034372;28;20274;-70
2021/06/05 09:42:30;;;;;;;;;;;;;;;23.09;73.72;100860.75;5034250;28;19998;-70
2021/06/05 09:45:23;;;;;;;;;;;;;;;23.60;72.57;100861.75;5034246;28;20063;-70
2021/06/05 09:48:27;;;;;;;;;;;;;;;23.65;72.43;100854.59;5035145;28;19920;-69
2021/06/05 09:51:30;;;;;;;;;;;;;;;24.04;71.23;100853.66;5035180;28;20420;-69
2021/06/05 09:54:34;;;;;;;;;;;;;;;24.38;69.82;100851.38;5034035;28;19919;-69
2021/06/05 09:57:24;;;;;;;;;;;;;;;24.11;68.29;100844.41;5034995;28;19959;-70
2021/06/05 10:00:13;;;;;;;;;;;;;;;24.33;68.10;100857.47;5033954;28;20305;-70
2021/06/05 10:03:16;;;;;;;;;;;;;;;24.41;67.50;100856.38;5034818;28;20392;-70
2021/06/05 10:06:00;;;;;;;;;;;;;;;24.70;68.82;100861.25;5035059;28;20331;-70
2021/06/05 10:08:44;;;;;;;;;;;;;;;24.55;69.26;100860.72;5033883;28;19965;-70
2021/06/05 10:11:29;;;;;;;;;;;;;;;24.39;68.37;100863.94;5019613;28;19920;-70
2021/06/05 10:14:14;;;;;;;;;;;;;;;23.74;70.65;100863.38;5033950;28;19920;-70
2021/06/05 10:17:08;;;;;;;;;;;;;;;23.66;72.12;100860.91;5033686;28;20019;-70
2021/06/05 10:20:18;;;;;;;;;;;;;;;23.55;72.78;100862.38;5034013;28;19920;-70
2021/06/05 10:23:02;;;;;;;;;;;;;;;23.50;71.84;100864.06;5024495;28;20325;-71
2021/06/05 10:25:49;;;;;;;;;;;;;;;23.65;71.92;100857.31;5033748;28;19919;-71
2021/06/05 10:28:37;;;;;;;;;;;;;;;23.25;71.12;100871.25;5034303;28;20024;-70
2021/06/05 10:31:22;;;;;;;;;;;;;;;22.99;70.30;100872.06;5034060;28;19923;-71
2021/06/05 10:34:29;;;;;;;;;;;;;;;23.01;72.11;100858.28;5033334;28;19920;-71
2021/06/05 10:37:16;;;;;;;;;;;;;;;23.87;69.68;100852.47;5034348;28;19963;-71
2021/06/05 10:40:00;;;;;;;;;;;;;;;24.10;67.16;100849.00;5033084;28;19924;-71
2021/06/05 10:42:45;;;;;;;;;;;;;;;24.95;65.36;100851.16;5032960;28;19920;-70
2021/06/05 10:45:30;;;;;;;;;;;;;;;24.57;62.67;100864.03;5033982;28;19939;-71
2021/06/05 10:48:22;;;;;;;;;;;;;;;24.36;62.29;100858.91;5019251;28;20058;-70
2021/06/05 10:51:08;;;;;;;;;;;;;;;24.25;64.30;100854.16;5033195;28;19939;-71
2021/06/05 10:53:52;;;;;;;;;;;;;;;24.69;64.92;100846.75;5033199;28;19939;-69
2021/06/05 10:56:55;;;;;;;;;;;;;;;25.62;60.84;100851.97;5034015;28;19979;-71
2021/06/05 10:59:44;;;;;;;;;;;;;;;25.61;62.15;100844.84;5032797;28;19955;-70
2021/06/05 11:02:37;;;;;;;;;;;;;;;26.12;59.13;100837.09;5032825;28;19974;-71
2021/06/05 11:05:24;;;;;;;;;;;;;;;25.13;61.31;100843.03;5033646;28;19979;-70
2021/06/05 11:08:08;;;;;;;;;;;;;;;25.08;62.64;100849.16;5033760;28;19944;-70
2021/06/05 11:11:01;;;;;;;;;;;;;;;24.78;63.80;100852.75;5033627;28;19959;-71
2021/06/05 11:13:45;;;;;;;;;;;;;;;24.54;64.73;100845.41;5033942;28;19920;-70
2021/06/05 11:16:47;;;;;;;;;;;;;;;24.70;65.80;100840.25;5033499;28;20039;-71
2021/06/05 11:19:39;;;;;;;;;;;;;;;24.55;65.72;100842.47;5033350;28;19920;-70
2021/06/05 11:22:25;;;;;;;;;;;;;;;24.14;68.53;100841.22;5032683;28;19951;-71
2021/06/05 11:25:08;;;;;;;;;;;;;;;23.82;68.76;100855.81;5033401;28;20005;-67
2021/06/05 11:27:53;;;;;;;;;;;;;;;23.72;68.82;100838.28;5033487;28;19942;-70
2021/06/05 11:30:37;;;;;;;;;;;;;;;23.53;67.15;100845.44;5018748;28;20434;-71
2021/06/05 11:33:38;;;;;;;;;;;;;;;23.50;69.01;100845.88;5032205;28;19933;-71
2021/06/05 11:36:37;;;;;;;;;;;;;;;23.10;72.75;100841.53;5032364;28;19919;-70
2021/06/05 11:39:24;;;;;;;;;;;;;;;23.02;73.01;100841.72;5032682;28;20444;-70
2021/06/05 11:42:17;;;;;;;;;;;;;;;22.48;76.48;100837.53;5033137;28;19920;-70
2021/06/05 11:45:01;;;;;;;;;;;;;;;22.60;76.98;100842.16;5033093;28;19963;-68
2021/06/05 11:47:45;;;;;;;;;;;;;;;22.50;78.06;100841.72;5033028;28;19920;-70
2021/06/05 11:50:32;;;;;;;;;;;;;;;22.28;78.72;100848.34;5033181;28;19990;-71
2021/06/05 11:53:32;;;;;;;;;;;;;;;22.37;76.49;100829.97;5033182;28;19920;-69
2021/06/05 11:56:27;;;;;;;;;;;;;;;22.10;75.10;100844.53;5032616;28;19920;-71
2021/06/05 11:59:17;;;;;;;;;;;;;;;22.04;71.92;100839.91;5032130;28;19920;-70
2021/06/05 12:02:05;;;;;;;;;;;;;;;22.08;72.80;100841.22;5032303;28;20304;-71
2021/06/05 12:04:50;;;;;;;;;;;;;;;21.72;72.57;100857.78;5018307;28;20024;-70
2021/06/05 12:07:35;;;;;;;;;;;;;;;21.67;75.15;100862.13;5032045;28;19924;-70
2021/06/05 12:10:35;;;;;;;;;;;;;;;21.46;76.21;100863.00;5031793;28;19974;-71
2021/06/05 12:13:22;;;;;;;;;;;;;;;21.54;76.38;100871.00;5032119;28;19927;-70
2021/06/05 12:16:09;;;;;;;;;;;;;;;21.87;75.30;100877.44;5031868;28;19971;-71
2021/06/05 12:18:53;;;;;;;;;;;;;;;21.38;79.02;100871.31;5033023;28;19962;-70
2021/06/05 12:21:38;;;;;;;;;;;;;;;21.23;82.38;100882.47;5031697;28;19920;-71
2021/06/05 12:24:24;;;;;;;;;;;;;;;20.56;90.36;100883.94;5033010;28;20393;-71
2021/06/05 12:27:08;;;;;;;;;;;;;;;20.02;99.36;100878.09;5031640;28;20057;-71
2021/06/05 12:30:02;;;;;;;;;;;;;;;19.51;100.00;100879.09;5031607;28;19920;-71
2021/06/05 12:32:53;;;;;;;;;;;;;;;19.08;100.00;100881.75;5032764;28;19978;-71
2021/06/05 12:35:36;;;;;;;;;;;;;;;18.73;100.00;100895.91;5031633;28;20353;-68
2021/06/05 12:38:50;;;;;;;;;;;;;;;18.53;100.00;100895.56;5032760;28;19924;-69
2021/06/05 12:41:34;;;;;;;;;;;;;;;18.43;100.00;100883.31;5029211;28;19966;-69
2021/06/05 12:44:19;;;;;;;;;;;;;;;18.26;100.00;100881.72;5033051;28;19919;-68
2021/06/05 12:47:05;;;;;;;;;;;;;;;18.25;100.00;100876.50;5031716;28;20069;-69
2021/06/05 12:49:49;;;;;;;;;;;;;;;18.36;100.00;100876.97;5031447;28;20015;-67
2021/06/05 12:52:33;;;;;;;;;;;;;;;18.28;100.00;100879.69;5031711;28;19920;-68
2021/06/05 12:55:26;;;;;;;;;;;;;;;18.40;100.00;100883.69;5031761;28;19920;-68
2021/06/05 12:58:11;;;;;;;;;;;;;;;18.46;100.00;100878.41;5031650;28;20004;-67
2021/06/05 13:00:55;;;;;;;;;;;;;;;18.85;100.00;100879.09;5031471;28;19940;-68
2021/06/05 13:03:44;;;;;;;;;;;;;;;18.95;100.00;100890.47;5031657;28;19924;-68
2021/06/05 13:06:32;;;;;;;;;;;;;;;19.10;100.00;100883.22;5034184;28;19919;-68
2021/06/05 13:09:37;;;;;;;;;;;;;;;19.50;100.00;100873.91;5035120;28;19943;-68
2021/06/05 13:12:21;;;;;;;;;;;;;;;19.67;100.00;100864.53;5035072;28;20000;-68
2021/06/05 13:15:06;;;;;;;;;;;;;;;19.75;100.00;100868.00;5036428;28;19920;-68
2021/06/05 13:17:50;;;;;;;;;;;;;;;20.40;100.00;100865.25;5034863;28;19975;-66
2021/06/05 13:20:35;;;;;;;;;;;;;;;20.22;100.00;100864.84;5035897;28;20342;-68
2021/06/05 13:23:22;;;;;;;;;;;;;;;20.40;100.00;100857.94;5020847;28;20308;-68
2021/06/05 13:26:15;;;;;;;;;;;;;;;20.04;100.00;100854.44;5035116;28;20014;-68
2021/06/05 13:29:18;;;;;;;;;;;;;;;20.20;100.00;100856.09;5035457;28;19946;-69
2021/06/05 13:32:07;;;;;;;;;;;;;;;20.62;100.00;100854.19;5035632;28;19935;-69
2021/06/05 13:34:51;;;;;;;;;;;;;;;21.02;100.00;100852.72;5034630;28;19958;-69
2021/06/05 13:37:46;;;;;;;;;;;;;;;21.26;100.00;100847.66;5035692;28;19936;-68
2021/06/05 13:40:30;;;;;;;;;;;;;;;21.08;100.00;100841.06;5020707;28;19920;-69
2021/06/05 13:43:14;;;;;;;;;;;;;;;21.25;100.00;100830.53;5034572;28;20309;-69
2021/06/05 13:46:02;;;;;;;;;;;;;;;21.09;100.00;100831.88;5035633;28;19959;-69
2021/06/05 13:48:46;;;;;;;;;;;;;;;21.38;100.00;100827.91;5034542;28;19979;-70
2021/06/05 13:51:30;;;;;;;;;;;;;;;21.50;100.00;100823.56;5034474;28;19919;-69
2021/06/05 13:54:14;;;;;;;;;;;;;;;21.28;100.00;100824.72;5034776;28;19940;-70
2021/06/05 13:56:58;;;;;;;;;;;;;;;20.91;100.00;100820.72;5034440;28;20006;-70
2021/06/05 13:59:42;;;;;;;;;;;;;;;20.69;100.00;100821.75;5034412;28;19920;-69
2021/06/05 14:02:25;;;;;;;;;;;;;;;20.71;100.00;100827.81;5034078;28;20289;-70
2021/06/05 14:05:10;;;;;;;;;;;;;;;20.60;100.00;100825.66;5035353;28;20058;-69
2021/06/05 14:07:55;;;;;;;;;;;;;;;20.52;100.00;100823.88;5020281;28;20016;-70